sensor_id;sensor_type;location;lat;lon;timestamp;P1;durP1;ratioP1;P2;durP2;ratioP2
58384;SDS011;44185;47.844;8.966;2022-09-09T00:00:05;3.13;;;1.83;;
58384;SDS011;44185;47.844;8.966;2022-09-09T00:02:31;2.22;;;1.48;;
58384;SDS011;44185;47.844;8.966;2022-09-09T00:04:59;4.45;;;2.03;;
58384;SDS011;44185;47.844;8.966;2022-09-09T00:07:38;2.00;;;1.80;;
58384;SDS011;44185;47.844;8.966;2022-09-09T00:10:14;2.50;;;1.60;;
58384;SDS011;44185;47.844;8.966;2022-09-09T00:12:47;3.20;;;1.77;;
58384;SDS011;44185;47.844;8.966;2022-09-09T00:15:20;3.92;;;1.63;;
58384;SDS011;44185;47.844;8.966;2022-09-09T00:17:49;3.85;;;1.30;;
58384;SDS011;44185;47.844;8.966;2022-09-09T00:20:23;1.58;;;1.48;;
58384;SDS011;44185;47.844;8.966;2022-09-09T00:22:56;2.95;;;1.80;;
58384;SDS011;44185;47.844;8.966;2022-09-09T00:25:29;4.00;;;1.80;;
58384;SDS011;44185;47.844;8.966;2022-09-09T00:28:02;4.22;;;1.50;;
58384;SDS011;44185;47.844;8.966;2022-09-09T00:30:33;4.15;;;1.52;;
58384;SDS011;44185;47.844;8.966;2022-09-09T00:33:00;4.18;;;2.20;;
58384;SDS011;44185;47.844;8.966;2022-09-09T00:35:33;5.65;;;2.33;;
58384;SDS011;44185;47.844;8.966;2022-09-09T00:38:02;3.25;;;1.60;;
58384;SDS011;44185;47.844;8.966;2022-09-09T00:40:37;3.70;;;1.50;;
58384;SDS011;44185;47.844;8.966;2022-09-09T00:48:51;1.50;;;1.40;;
58384;SDS011;44185;47.844;8.966;2022-09-09T00:51:25;1.98;;;1.35;;
58384;SDS011;44185;47.844;8.966;2022-09-09T00:54:10;1.80;;;1.70;;
58384;SDS011;44185;47.844;8.966;2022-09-09T00:56:47;2.17;;;1.35;;
58384;SDS011;44185;47.844;8.966;2022-09-09T00:59:24;4.45;;;1.88;;
58384;SDS011;44185;47.844;8.966;2022-09-09T01:01:57;5.72;;;1.70;;
58384;SDS011;44185;47.844;8.966;2022-09-09T01:04:26;4.15;;;1.88;;
58384;SDS011;44185;47.844;8.966;2022-09-09T01:07:01;1.80;;;1.70;;
58384;SDS011;44185;47.844;8.966;2022-09-09T01:09:33;4.28;;;2.55;;
58384;SDS011;44185;47.844;8.966;2022-09-09T01:12:11;5.05;;;2.10;;
58384;SDS011;44185;47.844;8.966;2022-09-09T01:14:41;4.03;;;2.00;;
58384;SDS011;44185;47.844;8.966;2022-09-09T01:17:13;4.45;;;2.05;;
58384;SDS011;44185;47.844;8.966;2022-09-09T01:19:45;4.20;;;1.75;;
58384;SDS011;44185;47.844;8.966;2022-09-09T01:22:25;2.83;;;1.90;;
58384;SDS011;44185;47.844;8.966;2022-09-09T01:25:07;8.68;;;1.90;;
58384;SDS011;44185;47.844;8.966;2022-09-09T01:27:54;3.38;;;1.75;;
58384;SDS011;44185;47.844;8.966;2022-09-09T01:30:22;1.95;;;1.75;;
58384;SDS011;44185;47.844;8.966;2022-09-09T01:32:49;3.05;;;2.00;;
58384;SDS011;44185;47.844;8.966;2022-09-09T01:35:19;2.90;;;1.92;;
58384;SDS011;44185;47.844;8.966;2022-09-09T01:37:52;3.63;;;3.03;;
58384;SDS011;44185;47.844;8.966;2022-09-09T01:40:18;4.20;;;1.98;;
58384;SDS011;44185;47.844;8.966;2022-09-09T01:42:43;3.88;;;1.88;;
58384;SDS011;44185;47.844;8.966;2022-09-09T01:45:10;3.65;;;2.15;;
58384;SDS011;44185;47.844;8.966;2022-09-09T01:47:35;2.05;;;1.52;;
58384;SDS011;44185;47.844;8.966;2022-09-09T01:50:01;5.03;;;1.95;;
58384;SDS011;44185;47.844;8.966;2022-09-09T01:52:27;2.28;;;1.73;;
58384;SDS011;44185;47.844;8.966;2022-09-09T01:54:53;1.90;;;1.35;;
58384;SDS011;44185;47.844;8.966;2022-09-09T01:57:20;3.03;;;1.55;;
58384;SDS011;44185;47.844;8.966;2022-09-09T01:59:52;2.85;;;1.80;;
58384;SDS011;44185;47.844;8.966;2022-09-09T02:02:29;3.92;;;1.92;;
58384;SDS011;44185;47.844;8.966;2022-09-09T02:05:01;1.95;;;1.75;;
58384;SDS011;44185;47.844;8.966;2022-09-09T02:07:38;3.38;;;1.77;;
58384;SDS011;44185;47.844;8.966;2022-09-09T02:10:06;1.95;;;1.60;;
58384;SDS011;44185;47.844;8.966;2022-09-09T02:12:36;4.18;;;1.83;;
58384;SDS011;44185;47.844;8.966;2022-09-09T02:15:07;5.43;;;2.30;;
58384;SDS011;44185;47.844;8.966;2022-09-09T02:17:43;4.63;;;1.80;;
58384;SDS011;44185;47.844;8.966;2022-09-09T02:20:12;3.92;;;2.00;;
58384;SDS011;44185;47.844;8.966;2022-09-09T02:22:39;4.80;;;2.33;;
58384;SDS011;44185;47.844;8.966;2022-09-09T02:25:09;3.60;;;2.00;;
58384;SDS011;44185;47.844;8.966;2022-09-09T02:27:38;4.73;;;2.07;;
58384;SDS011;44185;47.844;8.966;2022-09-09T02:30:06;3.08;;;1.92;;
58384;SDS011;44185;47.844;8.966;2022-09-09T02:32:33;2.15;;;1.85;;
58384;SDS011;44185;47.844;8.966;2022-09-09T02:35:03;3.05;;;2.28;;
58384;SDS011;44185;47.844;8.966;2022-09-09T02:37:37;8.48;;;2.28;;
58384;SDS011;44185;47.844;8.966;2022-09-09T02:40:04;4.03;;;2.03;;
58384;SDS011;44185;47.844;8.966;2022-09-09T02:42:32;6.93;;;3.28;;
58384;SDS011;44185;47.844;8.966;2022-09-09T02:45:04;2.92;;;2.10;;
58384;SDS011;44185;47.844;8.966;2022-09-09T02:47:32;6.55;;;2.60;;
58384;SDS011;44185;47.844;8.966;2022-09-09T02:50:13;5.47;;;2.30;;
58384;SDS011;44185;47.844;8.966;2022-09-09T02:52:47;2.10;;;1.90;;
58384;SDS011;44185;47.844;8.966;2022-09-09T02:55:23;5.38;;;2.17;;
58384;SDS011;44185;47.844;8.966;2022-09-09T02:57:54;4.63;;;2.05;;
58384;SDS011;44185;47.844;8.966;2022-09-09T03:00:24;4.68;;;2.40;;
58384;SDS011;44185;47.844;8.966;2022-09-09T03:02:51;5.22;;;2.20;;
58384;SDS011;44185;47.844;8.966;2022-09-09T03:05:18;3.47;;;1.80;;
58384;SDS011;44185;47.844;8.966;2022-09-09T03:07:44;3.90;;;2.10;;
58384;SDS011;44185;47.844;8.966;2022-09-09T03:10:09;2.58;;;2.08;;
58384;SDS011;44185;47.844;8.966;2022-09-09T03:12:34;6.43;;;2.08;;
58384;SDS011;44185;47.844;8.966;2022-09-09T03:15:00;4.97;;;2.17;;
58384;SDS011;44185;47.844;8.966;2022-09-09T03:17:25;6.55;;;2.70;;
58384;SDS011;44185;47.844;8.966;2022-09-09T03:19:51;6.05;;;3.28;;
58384;SDS011;44185;47.844;8.966;2022-09-09T03:22:17;6.22;;;2.60;;
58384;SDS011;44185;47.844;8.966;2022-09-09T03:24:43;8.38;;;2.38;;
58384;SDS011;44185;47.844;8.966;2022-09-09T03:27:08;7.20;;;2.70;;
58384;SDS011;44185;47.844;8.966;2022-09-09T03:29:34;3.15;;;2.35;;
58384;SDS011;44185;47.844;8.966;2022-09-09T03:31:59;5.63;;;2.30;;
58384;SDS011;44185;47.844;8.966;2022-09-09T03:34:25;5.43;;;2.17;;
58384;SDS011;44185;47.844;8.966;2022-09-09T03:36:50;4.47;;;2.53;;
58384;SDS011;44185;47.844;8.966;2022-09-09T03:39:17;3.58;;;2.28;;
58384;SDS011;44185;47.844;8.966;2022-09-09T03:41:42;2.70;;;2.30;;
58384;SDS011;44185;47.844;8.966;2022-09-09T03:44:08;4.85;;;2.10;;
58384;SDS011;44185;47.844;8.966;2022-09-09T03:46:33;2.75;;;2.22;;
58384;SDS011;44185;47.844;8.966;2022-09-09T03:48:59;3.78;;;2.10;;
58384;SDS011;44185;47.844;8.966;2022-09-09T03:51:24;4.82;;;2.50;;
58384;SDS011;44185;47.844;8.966;2022-09-09T03:53:50;3.72;;;2.10;;
58384;SDS011;44185;47.844;8.966;2022-09-09T03:56:16;4.07;;;2.17;;
58384;SDS011;44185;47.844;8.966;2022-09-09T03:58:42;4.47;;;2.58;;
58384;SDS011;44185;47.844;8.966;2022-09-09T04:01:08;6.80;;;2.33;;
58384;SDS011;44185;47.844;8.966;2022-09-09T04:03:35;5.72;;;2.35;;
58384;SDS011;44185;47.844;8.966;2022-09-09T04:06:00;5.45;;;2.45;;
58384;SDS011;44185;47.844;8.966;2022-09-09T04:08:27;5.43;;;2.38;;
58384;SDS011;44185;47.844;8.966;2022-09-09T04:10:53;3.92;;;2.60;;
58384;SDS011;44185;47.844;8.966;2022-09-09T04:13:20;10.73;;;3.63;;
58384;SDS011;44185;47.844;8.966;2022-09-09T04:15:50;9.70;;;3.30;;
58384;SDS011;44185;47.844;8.966;2022-09-09T04:18:16;9.65;;;3.70;;
58384;SDS011;44185;47.844;8.966;2022-09-09T04:20:41;10.52;;;4.07;;
58384;SDS011;44185;47.844;8.966;2022-09-09T04:23:07;9.18;;;4.00;;
58384;SDS011;44185;47.844;8.966;2022-09-09T04:25:32;11.30;;;4.40;;
58384;SDS011;44185;47.844;8.966;2022-09-09T04:27:58;8.88;;;3.38;;
58384;SDS011;44185;47.844;8.966;2022-09-09T04:30:24;6.90;;;3.55;;
58384;SDS011;44185;47.844;8.966;2022-09-09T04:32:50;7.78;;;3.53;;
58384;SDS011;44185;47.844;8.966;2022-09-09T04:35:15;7.28;;;3.75;;
58384;SDS011;44185;47.844;8.966;2022-09-09T04:37:41;10.25;;;3.40;;
58384;SDS011;44185;47.844;8.966;2022-09-09T04:40:08;5.80;;;3.35;;
58384;SDS011;44185;47.844;8.966;2022-09-09T04:42:34;7.65;;;3.35;;
58384;SDS011;44185;47.844;8.966;2022-09-09T04:45:00;7.40;;;3.13;;
58384;SDS011;44185;47.844;8.966;2022-09-09T04:47:27;6.53;;;3.40;;
58384;SDS011;44185;47.844;8.966;2022-09-09T04:49:52;9.50;;;3.75;;
58384;SDS011;44185;47.844;8.966;2022-09-09T04:52:17;6.45;;;3.58;;
58384;SDS011;44185;47.844;8.966;2022-09-09T04:54:43;7.68;;;3.65;;
58384;SDS011;44185;47.844;8.966;2022-09-09T04:57:10;7.57;;;3.80;;
58384;SDS011;44185;47.844;8.966;2022-09-09T04:59:35;7.53;;;3.40;;
58384;SDS011;44185;47.844;8.966;2022-09-09T05:02:01;10.13;;;4.10;;
58384;SDS011;44185;47.844;8.966;2022-09-09T05:04:28;6.38;;;3.15;;
58384;SDS011;44185;47.844;8.966;2022-09-09T05:06:53;5.60;;;3.33;;
58384;SDS011;44185;47.844;8.966;2022-09-09T05:09:19;7.30;;;3.83;;
58384;SDS011;44185;47.844;8.966;2022-09-09T05:11:44;8.93;;;3.80;;
58384;SDS011;44185;47.844;8.966;2022-09-09T05:14:09;8.18;;;3.40;;
58384;SDS011;44185;47.844;8.966;2022-09-09T05:16:35;4.53;;;2.78;;
58384;SDS011;44185;47.844;8.966;2022-09-09T05:19:00;9.75;;;3.13;;
58384;SDS011;44185;47.844;8.966;2022-09-09T05:21:28;6.28;;;3.03;;
58384;SDS011;44185;47.844;8.966;2022-09-09T05:23:53;7.43;;;3.25;;
58384;SDS011;44185;47.844;8.966;2022-09-09T05:26:20;7.03;;;3.33;;
58384;SDS011;44185;47.844;8.966;2022-09-09T05:28:46;7.57;;;3.05;;
58384;SDS011;44185;47.844;8.966;2022-09-09T05:31:13;6.15;;;2.90;;
58384;SDS011;44185;47.844;8.966;2022-09-09T05:33:40;7.40;;;3.13;;
58384;SDS011;44185;47.844;8.966;2022-09-09T05:36:07;8.55;;;3.35;;
58384;SDS011;44185;47.844;8.966;2022-09-09T05:38:35;6.78;;;3.15;;
58384;SDS011;44185;47.844;8.966;2022-09-09T05:41:00;5.70;;;3.20;;
58384;SDS011;44185;47.844;8.966;2022-09-09T05:43:26;7.35;;;2.97;;
58384;SDS011;44185;47.844;8.966;2022-09-09T05:45:59;3.38;;;2.70;;
58384;SDS011;44185;47.844;8.966;2022-09-09T05:48:27;8.88;;;3.50;;
58384;SDS011;44185;47.844;8.966;2022-09-09T05:50:53;4.57;;;2.95;;
58384;SDS011;44185;47.844;8.966;2022-09-09T05:53:18;4.57;;;2.80;;
58384;SDS011;44185;47.844;8.966;2022-09-09T05:55:45;5.88;;;2.90;;
58384;SDS011;44185;47.844;8.966;2022-09-09T05:58:11;8.50;;;3.08;;
58384;SDS011;44185;47.844;8.966;2022-09-09T06:00:37;6.72;;;2.63;;
58384;SDS011;44185;47.844;8.966;2022-09-09T06:03:02;3.55;;;2.58;;
58384;SDS011;44185;47.844;8.966;2022-09-09T06:05:28;4.97;;;2.75;;
58384;SDS011;44185;47.844;8.966;2022-09-09T06:07:53;4.25;;;2.58;;
58384;SDS011;44185;47.844;8.966;2022-09-09T06:10:19;6.50;;;2.78;;
58384;SDS011;44185;47.844;8.966;2022-09-09T06:12:46;4.28;;;2.50;;
58384;SDS011;44185;47.844;8.966;2022-09-09T06:15:11;6.43;;;2.42;;
58384;SDS011;44185;47.844;8.966;2022-09-09T06:17:37;3.83;;;2.47;;
58384;SDS011;44185;47.844;8.966;2022-09-09T06:20:02;5.30;;;2.10;;
58384;SDS011;44185;47.844;8.966;2022-09-09T06:22:28;4.43;;;2.20;;
58384;SDS011;44185;47.844;8.966;2022-09-09T06:24:54;5.75;;;2.47;;
58384;SDS011;44185;47.844;8.966;2022-09-09T06:27:19;3.97;;;2.60;;
58384;SDS011;44185;47.844;8.966;2022-09-09T06:29:46;4.60;;;2.20;;
58384;SDS011;44185;47.844;8.966;2022-09-09T06:32:12;2.90;;;2.30;;
58384;SDS011;44185;47.844;8.966;2022-09-09T06:34:37;4.97;;;2.42;;
58384;SDS011;44185;47.844;8.966;2022-09-09T06:37:03;3.83;;;2.70;;
58384;SDS011;44185;47.844;8.966;2022-09-09T06:39:28;2.97;;;2.40;;
58384;SDS011;44185;47.844;8.966;2022-09-09T06:41:54;4.47;;;2.47;;
58384;SDS011;44185;47.844;8.966;2022-09-09T06:44:19;6.88;;;2.38;;
58384;SDS011;44185;47.844;8.966;2022-09-09T06:46:46;3.38;;;2.40;;
58384;SDS011;44185;47.844;8.966;2022-09-09T06:49:11;6.18;;;2.50;;
58384;SDS011;44185;47.844;8.966;2022-09-09T06:51:37;3.97;;;2.70;;
58384;SDS011;44185;47.844;8.966;2022-09-09T06:54:03;7.63;;;2.35;;
58384;SDS011;44185;47.844;8.966;2022-09-09T06:56:29;4.00;;;2.10;;
58384;SDS011;44185;47.844;8.966;2022-09-09T06:58:57;4.90;;;2.40;;
58384;SDS011;44185;47.844;8.966;2022-09-09T07:01:25;5.72;;;2.20;;
58384;SDS011;44185;47.844;8.966;2022-09-09T07:03:53;3.42;;;2.20;;
58384;SDS011;44185;47.844;8.966;2022-09-09T07:06:22;4.18;;;2.20;;
58384;SDS011;44185;47.844;8.966;2022-09-09T07:08:49;2.25;;;2.05;;
58384;SDS011;44185;47.844;8.966;2022-09-09T07:11:16;3.60;;;1.80;;
58384;SDS011;44185;47.844;8.966;2022-09-09T07:13:41;4.53;;;2.25;;
58384;SDS011;44185;47.844;8.966;2022-09-09T07:16:08;3.53;;;1.90;;
58384;SDS011;44185;47.844;8.966;2022-09-09T07:18:35;1.90;;;1.80;;
58384;SDS011;44185;47.844;8.966;2022-09-09T07:21:02;2.53;;;1.67;;
58384;SDS011;44185;47.844;8.966;2022-09-09T07:23:28;3.17;;;1.92;;
58384;SDS011;44185;47.844;8.966;2022-09-09T07:25:55;3.05;;;1.98;;
58384;SDS011;44185;47.844;8.966;2022-09-09T07:28:20;1.60;;;1.50;;
58384;SDS011;44185;47.844;8.966;2022-09-09T07:30:52;2.72;;;2.10;;
58384;SDS011;44185;47.844;8.966;2022-09-09T07:33:18;3.88;;;1.88;;
58384;SDS011;44185;47.844;8.966;2022-09-09T07:35:43;3.20;;;1.77;;
58384;SDS011;44185;47.844;8.966;2022-09-09T07:38:10;1.60;;;1.50;;
58384;SDS011;44185;47.844;8.966;2022-09-09T07:40:36;5.20;;;1.98;;
58384;SDS011;44185;47.844;8.966;2022-09-09T07:43:01;2.20;;;2.10;;
58384;SDS011;44185;47.844;8.966;2022-09-09T07:45:27;3.45;;;1.95;;
58384;SDS011;44185;47.844;8.966;2022-09-09T07:47:52;3.15;;;2.13;;
58384;SDS011;44185;47.844;8.966;2022-09-09T07:50:18;4.35;;;2.22;;
58384;SDS011;44185;47.844;8.966;2022-09-09T07:52:43;5.15;;;2.70;;
58384;SDS011;44185;47.844;8.966;2022-09-09T07:55:10;6.47;;;2.60;;
58384;SDS011;44185;47.844;8.966;2022-09-09T07:57:35;3.13;;;2.70;;
58384;SDS011;44185;47.844;8.966;2022-09-09T08:00:02;4.68;;;2.38;;
58384;SDS011;44185;47.844;8.966;2022-09-09T08:02:28;5.07;;;2.78;;
58384;SDS011;44185;47.844;8.966;2022-09-09T08:04:53;5.25;;;2.90;;
58384;SDS011;44185;47.844;8.966;2022-09-09T08:07:19;5.80;;;2.55;;
58384;SDS011;44185;47.844;8.966;2022-09-09T08:09:44;6.82;;;3.10;;
58384;SDS011;44185;47.844;8.966;2022-09-09T08:12:11;3.85;;;2.50;;
58384;SDS011;44185;47.844;8.966;2022-09-09T08:14:36;4.50;;;2.93;;
58384;SDS011;44185;47.844;8.966;2022-09-09T08:17:02;5.55;;;3.00;;
58384;SDS011;44185;47.844;8.966;2022-09-09T08:19:28;5.10;;;2.72;;
58384;SDS011;44185;47.844;8.966;2022-09-09T08:21:53;6.53;;;3.00;;
58384;SDS011;44185;47.844;8.966;2022-09-09T08:24:18;6.18;;;2.83;;
58384;SDS011;44185;47.844;8.966;2022-09-09T08:26:44;5.40;;;2.80;;
58384;SDS011;44185;47.844;8.966;2022-09-09T08:29:13;4.32;;;2.63;;
58384;SDS011;44185;47.844;8.966;2022-09-09T08:31:39;4.07;;;2.33;;
58384;SDS011;44185;47.844;8.966;2022-09-09T08:34:07;5.38;;;2.38;;
58384;SDS011;44185;47.844;8.966;2022-09-09T08:36:33;6.50;;;2.30;;
58384;SDS011;44185;47.844;8.966;2022-09-09T08:39:00;3.20;;;2.00;;
58384;SDS011;44185;47.844;8.966;2022-09-09T08:41:31;2.65;;;1.83;;
58384;SDS011;44185;47.844;8.966;2022-09-09T08:44:06;2.33;;;1.85;;
58384;SDS011;44185;47.844;8.966;2022-09-09T08:46:38;2.83;;;1.85;;
58384;SDS011;44185;47.844;8.966;2022-09-09T08:49:16;1.98;;;1.58;;
58384;SDS011;44185;47.844;8.966;2022-09-09T08:51:54;3.22;;;1.48;;
58384;SDS011;44185;47.844;8.966;2022-09-09T08:54:21;1.75;;;1.50;;
58384;SDS011;44185;47.844;8.966;2022-09-09T08:56:47;1.75;;;1.42;;
58384;SDS011;44185;47.844;8.966;2022-09-09T08:59:14;1.60;;;1.13;;
58384;SDS011;44185;47.844;8.966;2022-09-09T09:01:57;3.30;;;1.55;;
58384;SDS011;44185;47.844;8.966;2022-09-09T09:04:38;3.20;;;1.40;;
58384;SDS011;44185;47.844;8.966;2022-09-09T09:07:15;2.00;;;1.00;;
58384;SDS011;44185;47.844;8.966;2022-09-09T09:09:53;2.28;;;1.25;;
58384;SDS011;44185;47.844;8.966;2022-09-09T09:12:27;1.50;;;0.95;;
58384;SDS011;44185;47.844;8.966;2022-09-09T09:15:00;1.52;;;1.10;;
58384;SDS011;44185;47.844;8.966;2022-09-09T09:17:27;1.35;;;1.10;;
58384;SDS011;44185;47.844;8.966;2022-09-09T09:22:21;2.15;;;1.15;;
58384;SDS011;44185;47.844;8.966;2022-09-09T09:24:50;1.02;;;0.88;;
58384;SDS011;44185;47.844;8.966;2022-09-09T09:29:46;4.22;;;1.15;;
58384;SDS011;44185;47.844;8.966;2022-09-09T09:32:16;2.10;;;1.40;;
58384;SDS011;44185;47.844;8.966;2022-09-09T09:34:49;1.73;;;1.48;;
58384;SDS011;44185;47.844;8.966;2022-09-09T09:37:17;1.30;;;1.20;;
58384;SDS011;44185;47.844;8.966;2022-09-09T09:39:48;1.35;;;1.10;;
58384;SDS011;44185;47.844;8.966;2022-09-09T09:42:14;1.63;;;0.80;;
58384;SDS011;44185;47.844;8.966;2022-09-09T09:44:42;3.42;;;1.13;;
58384;SDS011;44185;47.844;8.966;2022-09-09T09:47:08;1.48;;;1.30;;
58384;SDS011;44185;47.844;8.966;2022-09-09T09:49:37;3.53;;;1.60;;
58384;SDS011;44185;47.844;8.966;2022-09-09T09:52:04;2.67;;;1.30;;
58384;SDS011;44185;47.844;8.966;2022-09-09T09:54:31;1.13;;;1.00;;
58384;SDS011;44185;47.844;8.966;2022-09-09T09:57:08;1.38;;;1.05;;
58384;SDS011;44185;47.844;8.966;2022-09-09T09:59:36;4.10;;;1.27;;
58384;SDS011;44185;47.844;8.966;2022-09-09T10:02:13;4.90;;;1.33;;
58384;SDS011;44185;47.844;8.966;2022-09-09T10:04:40;1.20;;;1.10;;
58384;SDS011;44185;47.844;8.966;2022-09-09T10:07:11;1.27;;;1.02;;
58384;SDS011;44185;47.844;8.966;2022-09-09T10:09:37;4.75;;;1.52;;
58384;SDS011;44185;47.844;8.966;2022-09-09T10:12:04;2.17;;;1.10;;
58384;SDS011;44185;47.844;8.966;2022-09-09T10:14:42;4.43;;;1.25;;
58384;SDS011;44185;47.844;8.966;2022-09-09T10:17:18;1.52;;;1.23;;
58384;SDS011;44185;47.844;8.966;2022-09-09T10:19:53;2.17;;;1.20;;
58384;SDS011;44185;47.844;8.966;2022-09-09T10:22:38;2.55;;;1.25;;
58384;SDS011;44185;47.844;8.966;2022-09-09T10:25:16;2.30;;;1.15;;
58384;SDS011;44185;47.844;8.966;2022-09-09T10:27:56;2.47;;;1.33;;
58384;SDS011;44185;47.844;8.966;2022-09-09T10:30:36;3.28;;;1.60;;
58384;SDS011;44185;47.844;8.966;2022-09-09T10:33:12;2.35;;;0.82;;
58384;SDS011;44185;47.844;8.966;2022-09-09T10:35:48;5.15;;;1.02;;
58384;SDS011;44185;47.844;8.966;2022-09-09T10:38:24;5.72;;;1.40;;
58384;SDS011;44185;47.844;8.966;2022-09-09T10:41:00;2.17;;;1.08;;
58384;SDS011;44185;47.844;8.966;2022-09-09T10:46:34;0.70;;;0.70;;
58384;SDS011;44185;47.844;8.966;2022-09-09T10:49:12;3.10;;;1.52;;
58384;SDS011;44185;47.844;8.966;2022-09-09T10:51:46;1.08;;;0.95;;
58384;SDS011;44185;47.844;8.966;2022-09-09T10:54:26;0.45;;;0.45;;
58384;SDS011;44185;47.844;8.966;2022-09-09T10:57:02;2.00;;;1.27;;
58384;SDS011;44185;47.844;8.966;2022-09-09T10:59:31;1.58;;;1.10;;
58384;SDS011;44185;47.844;8.966;2022-09-09T11:02:02;7.97;;;0.95;;
58384;SDS011;44185;47.844;8.966;2022-09-09T11:04:38;1.67;;;1.00;;
58384;SDS011;44185;47.844;8.966;2022-09-09T11:07:08;3.13;;;1.05;;
58384;SDS011;44185;47.844;8.966;2022-09-09T11:09:40;1.92;;;1.05;;
58384;SDS011;44185;47.844;8.966;2022-09-09T11:12:10;1.83;;;0.90;;
58384;SDS011;44185;47.844;8.966;2022-09-09T11:14:43;3.35;;;0.85;;
58384;SDS011;44185;47.844;8.966;2022-09-09T11:17:14;2.20;;;0.88;;
58384;SDS011;44185;47.844;8.966;2022-09-09T11:22:14;1.60;;;0.90;;
58384;SDS011;44185;47.844;8.966;2022-09-09T11:24:45;1.85;;;1.30;;
58384;SDS011;44185;47.844;8.966;2022-09-09T11:27:14;2.40;;;1.30;;
58384;SDS011;44185;47.844;8.966;2022-09-09T11:29:52;1.55;;;0.77;;
58384;SDS011;44185;47.844;8.966;2022-09-09T11:32:45;2.80;;;1.02;;
58384;SDS011;44185;47.844;8.966;2022-09-09T11:35:24;5.32;;;1.42;;
58384;SDS011;44185;47.844;8.966;2022-09-09T11:40:44;1.55;;;1.05;;
58384;SDS011;44185;47.844;8.966;2022-09-09T11:43:11;5.10;;;1.48;;
58384;SDS011;44185;47.844;8.966;2022-09-09T11:45:38;2.38;;;1.13;;
58384;SDS011;44185;47.844;8.966;2022-09-09T11:48:21;1.38;;;0.90;;
58384;SDS011;44185;47.844;8.966;2022-09-09T11:50:57;2.13;;;1.17;;
58384;SDS011;44185;47.844;8.966;2022-09-09T11:53:23;1.73;;;1.13;;
58384;SDS011;44185;47.844;8.966;2022-09-09T11:56:01;3.20;;;1.08;;
58384;SDS011;44185;47.844;8.966;2022-09-09T11:58:28;2.25;;;1.25;;
58384;SDS011;44185;47.844;8.966;2022-09-09T12:01:01;1.75;;;0.77;;
58384;SDS011;44185;47.844;8.966;2022-09-09T12:03:40;1.38;;;0.70;;
58384;SDS011;44185;47.844;8.966;2022-09-09T12:06:11;1.90;;;0.90;;
58384;SDS011;44185;47.844;8.966;2022-09-09T12:08:40;3.75;;;0.75;;
58384;SDS011;44185;47.844;8.966;2022-09-09T12:11:10;3.20;;;1.20;;
58384;SDS011;44185;47.844;8.966;2022-09-09T12:13:35;4.32;;;1.42;;
58384;SDS011;44185;47.844;8.966;2022-09-09T12:16:01;1.90;;;0.90;;
58384;SDS011;44185;47.844;8.966;2022-09-09T12:18:33;1.58;;;1.20;;
58384;SDS011;44185;47.844;8.966;2022-09-09T12:21:02;4.18;;;1.08;;
58384;SDS011;44185;47.844;8.966;2022-09-09T12:23:37;3.10;;;1.35;;
58384;SDS011;44185;47.844;8.966;2022-09-09T12:26:16;1.95;;;1.13;;
58384;SDS011;44185;47.844;8.966;2022-09-09T12:28:57;3.63;;;0.90;;
58384;SDS011;44185;47.844;8.966;2022-09-09T12:31:38;3.67;;;1.25;;
58384;SDS011;44185;47.844;8.966;2022-09-09T12:34:09;2.35;;;1.00;;
58384;SDS011;44185;47.844;8.966;2022-09-09T12:36:36;0.88;;;0.88;;
58384;SDS011;44185;47.844;8.966;2022-09-09T12:39:09;2.05;;;0.98;;
58384;SDS011;44185;47.844;8.966;2022-09-09T12:41:50;2.53;;;0.80;;
58384;SDS011;44185;47.844;8.966;2022-09-09T12:44:16;3.20;;;1.10;;
58384;SDS011;44185;47.844;8.966;2022-09-09T12:46:42;1.00;;;0.73;;
58384;SDS011;44185;47.844;8.966;2022-09-09T12:49:20;2.05;;;1.08;;
58384;SDS011;44185;47.844;8.966;2022-09-09T12:51:52;2.83;;;1.13;;
58384;SDS011;44185;47.844;8.966;2022-09-09T12:54:18;2.83;;;1.25;;
58384;SDS011;44185;47.844;8.966;2022-09-09T12:56:46;2.35;;;1.35;;
58384;SDS011;44185;47.844;8.966;2022-09-09T12:59:17;2.85;;;1.23;;
58384;SDS011;44185;47.844;8.966;2022-09-09T13:01:54;2.35;;;0.85;;
58384;SDS011;44185;47.844;8.966;2022-09-09T13:04:21;2.50;;;1.15;;
58384;SDS011;44185;47.844;8.966;2022-09-09T13:06:46;1.23;;;0.95;;
58384;SDS011;44185;47.844;8.966;2022-09-09T13:09:12;0.70;;;0.70;;
58384;SDS011;44185;47.844;8.966;2022-09-09T13:11:38;2.70;;;0.80;;
58384;SDS011;44185;47.844;8.966;2022-09-09T13:14:13;1.27;;;0.75;;
58384;SDS011;44185;47.844;8.966;2022-09-09T13:16:53;3.20;;;1.00;;
58384;SDS011;44185;47.844;8.966;2022-09-09T13:19:20;0.65;;;0.60;;
58384;SDS011;44185;47.844;8.966;2022-09-09T13:21:46;1.42;;;0.90;;
58384;SDS011;44185;47.844;8.966;2022-09-09T13:24:22;2.65;;;0.88;;
58384;SDS011;44185;47.844;8.966;2022-09-09T13:26:54;3.72;;;1.15;;
58384;SDS011;44185;47.844;8.966;2022-09-09T13:29:21;2.17;;;1.27;;
58384;SDS011;44185;47.844;8.966;2022-09-09T13:31:47;4.00;;;1.00;;
58384;SDS011;44185;47.844;8.966;2022-09-09T13:34:13;2.15;;;0.63;;
58384;SDS011;44185;47.844;8.966;2022-09-09T13:36:50;1.08;;;0.88;;
58384;SDS011;44185;47.844;8.966;2022-09-09T13:39:16;2.35;;;0.73;;
58384;SDS011;44185;47.844;8.966;2022-09-09T13:41:42;0.80;;;0.77;;
58384;SDS011;44185;47.844;8.966;2022-09-09T13:44:14;3.00;;;0.75;;
58384;SDS011;44185;47.844;8.966;2022-09-09T13:46:46;1.60;;;0.77;;
58384;SDS011;44185;47.844;8.966;2022-09-09T13:49:19;2.97;;;0.40;;
58384;SDS011;44185;47.844;8.966;2022-09-09T13:51:47;0.93;;;0.50;;
58384;SDS011;44185;47.844;8.966;2022-09-09T13:54:15;0.98;;;0.50;;
58384;SDS011;44185;47.844;8.966;2022-09-09T13:56:42;2.50;;;0.60;;
58384;SDS011;44185;47.844;8.966;2022-09-09T13:59:13;0.50;;;0.40;;
58384;SDS011;44185;47.844;8.966;2022-09-09T14:01:40;1.35;;;0.40;;
58384;SDS011;44185;47.844;8.966;2022-09-09T14:04:08;1.50;;;0.45;;
58384;SDS011;44185;47.844;8.966;2022-09-09T14:06:35;2.83;;;0.90;;
58384;SDS011;44185;47.844;8.966;2022-09-09T14:09:01;0.57;;;0.40;;
58384;SDS011;44185;47.844;8.966;2022-09-09T14:11:26;0.20;;;0.20;;
58384;SDS011;44185;47.844;8.966;2022-09-09T14:13:52;1.38;;;0.90;;
58384;SDS011;44185;47.844;8.966;2022-09-09T14:16:17;3.28;;;0.50;;
58384;SDS011;44185;47.844;8.966;2022-09-09T14:18:43;0.35;;;0.30;;
58384;SDS011;44185;47.844;8.966;2022-09-09T14:21:09;1.25;;;0.30;;
58384;SDS011;44185;47.844;8.966;2022-09-09T14:23:35;1.80;;;0.60;;
58384;SDS011;44185;47.844;8.966;2022-09-09T14:26:01;3.97;;;0.80;;
58384;SDS011;44185;47.844;8.966;2022-09-09T14:28:26;3.05;;;0.80;;
58384;SDS011;44185;47.844;8.966;2022-09-09T14:30:52;1.85;;;0.70;;
58384;SDS011;44185;47.844;8.966;2022-09-09T14:33:17;0.90;;;0.40;;
58384;SDS011;44185;47.844;8.966;2022-09-09T14:35:43;1.85;;;0.77;;
58384;SDS011;44185;47.844;8.966;2022-09-09T14:38:09;2.28;;;0.60;;
58384;SDS011;44185;47.844;8.966;2022-09-09T14:40:35;2.33;;;0.77;;
58384;SDS011;44185;47.844;8.966;2022-09-09T14:43:02;1.15;;;0.47;;
58384;SDS011;44185;47.844;8.966;2022-09-09T14:45:29;2.30;;;0.75;;
58384;SDS011;44185;47.844;8.966;2022-09-09T14:47:54;0.37;;;0.37;;
58384;SDS011;44185;47.844;8.966;2022-09-09T14:50:20;1.98;;;0.52;;
58384;SDS011;44185;47.844;8.966;2022-09-09T14:52:47;3.40;;;0.70;;
58384;SDS011;44185;47.844;8.966;2022-09-09T14:55:14;3.88;;;0.65;;
58384;SDS011;44185;47.844;8.966;2022-09-09T14:57:40;2.95;;;0.80;;
58384;SDS011;44185;47.844;8.966;2022-09-09T15:00:06;2.80;;;0.60;;
58384;SDS011;44185;47.844;8.966;2022-09-09T15:02:32;1.88;;;0.80;;
58384;SDS011;44185;47.844;8.966;2022-09-09T15:04:58;2.25;;;0.85;;
58384;SDS011;44185;47.844;8.966;2022-09-09T15:07:23;0.40;;;0.40;;
58384;SDS011;44185;47.844;8.966;2022-09-09T15:09:49;1.85;;;0.60;;
58384;SDS011;44185;47.844;8.966;2022-09-09T15:12:16;1.85;;;0.40;;
58384;SDS011;44185;47.844;8.966;2022-09-09T15:14:41;0.60;;;0.32;;
58384;SDS011;44185;47.844;8.966;2022-09-09T15:17:07;3.88;;;1.63;;